Time;durP1;ratioP1;P1;durP2;ratioP2;P2;SDS_P1;SDS_P2;PMS_P1;PMS_P2;Temp;Humidity;BMP_temperature;BMP_pressure;BME280_temperature;BME280_humidity;BME280_pressure;Samples;Min_cycle;Max_cycle;Signal;HPM_P1;HPM_P2
2022/05/27 00:02:00;;;;;;;;;;;;;;;22.36;48.67;100306.34;4430164;32;20012;-82
2022/05/27 00:04:29;;;;;;;;;;;;;;;22.33;48.98;100297.63;4438480;32;20290;-87
2022/05/27 00:06:56;;;;;;;;;;;;;;;22.43;49.09;100296.50;4431977;32;19996;-87
2022/05/27 00:09:25;;;;;;;;;;;;;;;22.32;49.24;100293.28;4429844;32;20378;-86
2022/05/27 00:11:52;;;;;;;;;;;;;;;22.36;48.71;100294.94;4433095;32;19981;-82
2022/05/27 00:14:19;;;;;;;;;;;;;;;22.36;49.09;100289.66;4438340;32;20338;-83
2022/05/27 00:16:46;;;;;;;;;;;;;;;22.27;49.68;100286.34;4437291;32;20045;-85
2022/05/27 00:19:13;;;;;;;;;;;;;;;22.18;49.61;100270.75;4446185;32;19977;-84
2022/05/27 00:21:40;;;;;;;;;;;;;;;22.22;49.69;100277.69;4441266;32;20048;-84
2022/05/27 00:24:06;;;;;;;;;;;;;;;22.25;49.44;100271.47;4441983;32;20091;-86
2022/05/27 00:26:34;;;;;;;;;;;;;;;22.17;49.99;100268.16;4446615;32;19977;-83
2022/05/27 00:29:00;;;;;;;;;;;;;;;22.25;49.89;100267.06;4444364;32;19982;-85
2022/05/27 00:31:28;;;;;;;;;;;;;;;22.39;49.80;100273.75;4406025;32;20006;-82
2022/05/27 00:33:56;;;;;;;;;;;;;;;22.39;49.87;100263.19;4414111;32;19990;-80
2022/05/27 00:36:22;;;;;;;;;;;;;;;22.20;50.71;100258.38;4414681;32;20038;-84
2022/05/27 00:38:49;;;;;;;;;;;;;;;22.34;49.77;100262.47;4418129;32;20000;-84
2022/05/27 00:41:17;;;;;;;;;;;;;;;22.41;49.52;100266.69;4422102;32;20765;-85
2022/05/27 00:43:44;;;;;;;;;;;;;;;22.33;49.51;100258.06;4423645;32;20041;-83
2022/05/27 00:46:12;;;;;;;;;;;;;;;22.24;49.83;100265.34;4418551;32;20779;-82
2022/05/27 00:48:39;;;;;;;;;;;;;;;22.44;48.69;100261.31;4417073;32;19998;-83
2022/05/27 00:51:08;;;;;;;;;;;;;;;22.28;49.18;100266.97;4415533;32;20049;-85
2022/05/27 00:53:38;;;;;;;;;;;;;;;22.20;49.91;100263.66;4401963;32;20037;-82
2022/05/27 00:56:05;;;;;;;;;;;;;;;22.32;49.11;100261.63;4417291;32;19989;-84
2022/05/27 00:58:43;;;;;;;;;;;;;;;22.26;49.32;100263.50;4408496;32;20008;-85
2022/05/27 01:01:10;;;;;;;;;;;;;;;22.23;49.48;100268.84;4422476;32;20333;-85
2022/05/27 01:03:37;;;;;;;;;;;;;;;22.13;49.50;100259.41;4403025;32;19978;-85
2022/05/27 01:06:05;;;;;;;;;;;;;;;22.26;48.57;100262.66;4401656;32;20001;-83
2022/05/27 01:08:32;;;;;;;;;;;;;;;22.25;48.69;100259.16;4415219;32;20018;-82
2022/05/27 01:10:59;;;;;;;;;;;;;;;22.32;48.68;100261.63;4423138;32;20041;-85
2022/05/27 01:13:46;;;;;;;;;;;;;;;22.27;48.97;100259.97;4415808;32;19970;-84
2022/05/27 01:16:13;;;;;;;;;;;;;;;22.20;49.24;100263.66;4417423;32;20010;-85
2022/05/27 01:21:53;;;;;;;;;;;;;;;22.21;48.78;100260.13;4423519;32;20392;-86
2022/05/27 01:24:22;;;;;;;;;;;;;;;22.38;48.57;100264.13;4428728;32;19998;-84
2022/05/27 01:26:52;;;;;;;;;;;;;;;22.39;48.57;100257.91;4430658;32;19994;-84
2022/05/27 01:29:22;;;;;;;;;;;;;;;22.26;48.73;100260.87;4424014;32;20084;-82
2022/05/27 01:31:50;;;;;;;;;;;;;;;22.38;48.62;100257.06;4418117;32;20440;-86
2022/05/27 01:34:33;;;;;;;;;;;;;;;22.20;49.75;100261.03;4422642;32;20049;-85
2022/05/27 01:37:00;;;;;;;;;;;;;;;22.18;49.78;100256.72;4401260;32;20307;-81
2022/05/27 01:39:34;;;;;;;;;;;;;;;22.10;49.93;100251.56;4416542;32;20060;-86
2022/05/27 01:42:13;;;;;;;;;;;;;;;22.10;49.59;100250.72;4408243;32;20324;-85
2022/05/27 01:44:42;;;;;;;;;;;;;;;22.11;49.65;100250.66;4400945;32;19996;-85
2022/05/27 01:47:11;;;;;;;;;;;;;;;22.21;49.84;100249.59;4425297;32;20005;-83
2022/05/27 01:49:42;;;;;;;;;;;;;;;22.20;50.75;100246.97;4410941;32;20376;-85
2022/05/27 01:52:14;;;;;;;;;;;;;;;22.14;50.14;100247.94;4403094;32;20445;-86
2022/05/27 01:54:44;;;;;;;;;;;;;;;22.11;50.48;100244.53;4407699;32;19977;-87
2022/05/27 01:57:30;;;;;;;;;;;;;;;22.12;50.91;100244.50;4417179;32;20308;-85
2022/05/27 02:00:04;;;;;;;;;;;;;;;22.16;51.08;100246.19;4403065;32;20507;-82
2022/05/27 02:02:32;;;;;;;;;;;;;;;22.13;51.34;100245.38;4424793;32;20048;-84
2022/05/27 02:05:10;;;;;;;;;;;;;;;22.17;51.44;100247.91;4403481;32;19981;-82
2022/05/27 02:07:36;;;;;;;;;;;;;;;22.14;51.17;100242.69;4407167;32;19978;-84
2022/05/27 02:10:06;;;;;;;;;;;;;;;21.98;51.57;100239.56;4429641;32;19982;-88
2022/05/27 02:12:35;;;;;;;;;;;;;;;21.85;51.15;100239.91;4418065;32;20033;-84
2022/05/27 02:15:03;;;;;;;;;;;;;;;22.07;50.70;100241.09;4412916;32;19977;-82
2022/05/27 02:17:33;;;;;;;;;;;;;;;21.82;51.85;100241.72;4415399;32;19998;-82
2022/05/27 02:20:01;;;;;;;;;;;;;;;21.95;51.28;100237.03;4426642;32;19997;-87
2022/05/27 02:22:29;;;;;;;;;;;;;;;21.81;51.94;100239.97;4410715;32;20033;-83
2022/05/27 02:25:01;;;;;;;;;;;;;;;21.91;51.76;100239.75;4402262;32;20271;-88
2022/05/27 02:27:31;;;;;;;;;;;;;;;21.91;51.74;100245.03;4417148;32;20060;-81
2022/05/27 02:30:00;;;;;;;;;;;;;;;21.83;51.91;100248.72;4400867;32;20518;-83
2022/05/27 02:32:34;;;;;;;;;;;;;;;21.73;52.10;100247.19;4386885;32;20043;-84
2022/05/27 02:35:09;;;;;;;;;;;;;;;21.58;52.42;100244.91;4394105;32;19978;-86
2022/05/27 02:37:49;;;;;;;;;;;;;;;21.71;52.22;100243.72;4390960;32;20008;-85
2022/05/27 02:40:18;;;;;;;;;;;;;;;21.56;52.39;100238.81;4402638;32;20003;-85
2022/05/27 02:43:00;;;;;;;;;;;;;;;21.55;52.47;100239.72;4387826;32;20237;-86
2022/05/27 02:45:40;;;;;;;;;;;;;;;21.72;52.00;100240.19;4400912;32;19978;-82
2022/05/27 02:48:26;;;;;;;;;;;;;;;21.44;52.71;100241.69;4400084;32;19978;-81
2022/05/27 02:51:12;;;;;;;;;;;;;;;21.59;51.61;100244.00;4432057;32;19982;-84
2022/05/27 02:53:41;;;;;;;;;;;;;;;21.49;52.00;100245.13;4432103;32;20053;-82
2022/05/27 02:56:10;;;;;;;;;;;;;;;21.44;51.94;100239.06;4429608;32;20049;-84
2022/05/27 02:58:37;;;;;;;;;;;;;;;21.35;52.29;100242.78;4402651;32;19996;-83
2022/05/27 03:01:04;;;;;;;;;;;;;;;21.24;52.53;100242.97;4416445;32;19978;-85
2022/05/27 03:03:31;;;;;;;;;;;;;;;21.30;52.52;100244.63;4415883;32;19989;-84
2022/05/27 03:06:02;;;;;;;;;;;;;;;21.21;52.68;100243.03;4416555;32;19986;-83
2022/05/27 03:08:50;;;;;;;;;;;;;;;21.31;51.96;100244.59;4423092;32;20005;-82
2022/05/27 03:11:21;;;;;;;;;;;;;;;21.27;52.40;100242.91;4400018;32;20028;-85
2022/05/27 03:14:06;;;;;;;;;;;;;;;21.29;52.20;100246.38;4423333;32;20857;-82
2022/05/27 03:16:48;;;;;;;;;;;;;;;21.20;52.53;100257.13;4424148;32;20320;-87
2022/05/27 03:19:21;;;;;;;;;;;;;;;21.14;52.61;100251.97;4438822;32;20005;-87
2022/05/27 03:21:54;;;;;;;;;;;;;;;21.22;52.62;100265.84;4426193;32;20019;-87
2022/05/27 03:24:21;;;;;;;;;;;;;;;21.14;53.06;100257.22;4410137;32;20020;-85
2022/05/27 03:26:54;;;;;;;;;;;;;;;21.23;52.70;100267.56;4433762;32;20312;-85
2022/05/27 03:29:33;;;;;;;;;;;;;;;21.30;52.05;100253.38;4431713;32;20027;-82
2022/05/27 03:32:09;;;;;;;;;;;;;;;21.35;52.00;100256.81;4431680;32;20007;-83
2022/05/27 03:34:58;;;;;;;;;;;;;;;21.34;52.31;100257.66;4431738;32;20375;-86
2022/05/27 03:37:27;;;;;;;;;;;;;;;21.29;52.07;100256.06;4431784;32;20679;-87
2022/05/27 03:39:54;;;;;;;;;;;;;;;21.31;52.23;100260.41;4417595;32;20456;-84
2022/05/27 03:42:24;;;;;;;;;;;;;;;21.29;52.21;100262.19;4433725;32;20080;-88
2022/05/27 03:45:01;;;;;;;;;;;;;;;21.32;52.25;100250.72;4410427;32;19997;-83
2022/05/27 03:47:28;;;;;;;;;;;;;;;21.20;52.38;100267.63;4443274;32;20314;-85
2022/05/27 03:49:55;;;;;;;;;;;;;;;21.25;51.77;100260.53;4443068;32;20008;-87
2022/05/27 03:52:23;;;;;;;;;;;;;;;21.33;51.57;100263.84;4431913;32;20333;-82
2022/05/27 03:54:50;;;;;;;;;;;;;;;21.19;51.91;100262.44;4417583;32;20003;-84
2022/05/27 03:57:17;;;;;;;;;;;;;;;21.39;51.97;100262.03;4440018;32;19982;-84
2022/05/27 03:59:44;;;;;;;;;;;;;;;21.33;51.68;100258.56;4412186;32;20091;-85
2022/05/27 04:02:11;;;;;;;;;;;;;;;21.32;51.52;100267.37;4431958;32;20354;-82
2022/05/27 04:04:39;;;;;;;;;;;;;;;21.34;51.47;100260.31;4435508;32;20402;-83
2022/05/27 04:07:06;;;;;;;;;;;;;;;21.47;51.10;100265.34;4429439;32;19992;-83
2022/05/27 04:09:33;;;;;;;;;;;;;;;21.22;51.44;100262.31;4437592;32;19986;-88
2022/05/27 04:12:00;;;;;;;;;;;;;;;21.29;50.78;100256.91;4432922;32;20007;-87
2022/05/27 04:14:27;;;;;;;;;;;;;;;21.37;50.39;100255.00;4430217;32;20069;-85
2022/05/27 04:17:27;;;;;;;;;;;;;;;21.41;50.66;100252.31;4445798;32;20435;-83
2022/05/27 04:19:41;;;;;;;;;;;;;;;21.48;50.64;100259.19;4429508;32;20043;-85
2022/05/27 04:22:08;;;;;;;;;;;;;;;21.62;50.03;100264.16;4440864;32;20040;-82
2022/05/27 04:24:35;;;;;;;;;;;;;;;21.63;50.39;100261.47;4440458;32;20095;-82
2022/05/27 04:27:12;;;;;;;;;;;;;;;21.71;49.60;100259.53;4438562;32;20022;-83
2022/05/27 04:29:48;;;;;;;;;;;;;;;21.56;49.74;100265.16;4433036;32;19982;-85
2022/05/27 04:32:15;;;;;;;;;;;;;;;21.68;49.54;100264.88;4438690;32;19985;-86
2022/05/27 04:34:42;;;;;;;;;;;;;;;21.66;49.94;100266.66;4446564;32;20022;-83
2022/05/27 04:37:09;;;;;;;;;;;;;;;21.78;49.68;100266.38;4446239;32;19999;-84
2022/05/27 04:39:37;;;;;;;;;;;;;;;21.79;49.83;100257.59;4272812;32;19986;-86
2022/05/27 04:42:04;;;;;;;;;;;;;;;21.69;49.99;100261.31;4424501;32;19997;-85
2022/05/27 04:44:31;;;;;;;;;;;;;;;21.86;49.34;100257.44;4430648;32;19986;-82
2022/05/27 04:46:58;;;;;;;;;;;;;;;21.89;49.07;100262.62;4438728;32;19984;-87
2022/05/27 04:52:10;;;;;;;;;;;;;;;21.79;49.65;100252.34;4422092;32;19982;-85
2022/05/27 04:54:38;;;;;;;;;;;;;;;21.80;50.30;100254.06;4416027;32;20050;-86
2022/05/27 04:57:05;;;;;;;;;;;;;;;21.88;49.97;100255.62;4419226;32;20345;-84
2022/05/27 04:59:36;;;;;;;;;;;;;;;21.95;49.77;100251.94;4423134;32;19981;-84
2022/05/27 05:02:03;;;;;;;;;;;;;;;22.05;48.95;100254.34;4431013;32;19985;-84
2022/05/27 05:04:30;;;;;;;;;;;;;;;22.09;49.29;100256.91;4425534;32;20453;-87
2022/05/27 05:07:01;;;;;;;;;;;;;;;22.06;49.33;100257.84;4418371;32;20669;-81
2022/05/27 05:09:28;;;;;;;;;;;;;;;22.09;49.36;100260.41;4415578;32;19985;-86
2022/05/27 05:11:55;;;;;;;;;;;;;;;22.20;49.25;100249.59;4415374;32;19974;-84
2022/05/27 05:14:22;;;;;;;;;;;;;;;22.22;49.73;100251.31;4415010;32;20339;-85
2022/05/27 05:16:49;;;;;;;;;;;;;;;22.36;49.43;100250.94;4425962;32;19996;-87
2022/05/27 05:19:16;;;;;;;;;;;;;;;22.29;49.51;100252.88;4425338;32;20032;-84
2022/05/27 05:21:43;;;;;;;;;;;;;;;22.43;49.29;100254.28;4422526;32;20023;-82
2022/05/27 05:24:09;;;;;;;;;;;;;;;22.51;47.51;100257.59;4421270;32;19997;-85
2022/05/27 05:26:36;;;;;;;;;;;;;;;22.58;46.47;100248.62;4423478;32;19973;-83
2022/05/27 05:29:05;;;;;;;;;;;;;;;22.61;46.48;100259.09;4418573;32;20008;-85
2022/05/27 05:31:33;;;;;;;;;;;;;;;22.53;47.43;100258.44;4415463;32;19981;-83
2022/05/27 05:34:01;;;;;;;;;;;;;;;22.62;47.46;100252.94;4414755;32;19990;-84
2022/05/27 05:36:29;;;;;;;;;;;;;;;22.64;47.40;100248.44;4417167;32;19988;-83
2022/05/27 05:38:56;;;;;;;;;;;;;;;22.64;47.03;100251.09;4421073;32;20709;-86
2022/05/27 05:41:27;;;;;;;;;;;;;;;22.74;47.10;100255.22;4419665;32;20057;-82
2022/05/27 05:43:54;;;;;;;;;;;;;;;22.95;45.83;100252.94;4418449;32;20338;-84
2022/05/27 05:46:21;;;;;;;;;;;;;;;22.92;45.32;100252.97;4424244;32;20041;-86
2022/05/27 05:48:48;;;;;;;;;;;;;;;22.71;45.97;100257.06;4426598;32;20303;-87
2022/05/27 05:51:15;;;;;;;;;;;;;;;22.52;45.88;100246.12;4424734;32;19997;-85
2022/05/27 05:53:42;;;;;;;;;;;;;;;22.59;46.67;100255.66;4419642;32;20049;-86
2022/05/27 05:56:09;;;;;;;;;;;;;;;22.65;46.40;100244.91;4421893;32;20033;-84
2022/05/27 05:58:36;;;;;;;;;;;;;;;22.80;44.75;100248.03;4417407;32;19994;-84
2022/05/27 06:01:03;;;;;;;;;;;;;;;22.96;42.94;100249.38;4422736;32;20047;-84
2022/05/27 06:03:31;;;;;;;;;;;;;;;22.98;42.27;100252.84;4431069;32;19985;-87
2022/05/27 06:05:58;;;;;;;;;;;;;;;23.18;41.38;100246.97;4423614;32;20307;-87
2022/05/27 06:08:25;;;;;;;;;;;;;;;23.21;41.91;100242.47;4426045;32;20001;-85
2022/05/27 06:10:52;;;;;;;;;;;;;;;23.21;42.98;100253.03;4431731;32;19978;-82
2022/05/27 06:13:18;;;;;;;;;;;;;;;23.59;39.88;100251.03;4426429;32;19981;-83
2022/05/27 06:15:45;;;;;;;;;;;;;;;23.76;39.24;100242.59;4426062;32;19986;-86
2022/05/27 06:18:13;;;;;;;;;;;;;;;24.04;39.65;100250.50;4431667;32;19974;-83
2022/05/27 06:20:40;;;;;;;;;;;;;;;24.04;40.55;100247.84;4426660;32;21099;-83
2022/05/27 06:23:07;;;;;;;;;;;;;;;24.32;38.52;100246.94;4428628;32;19974;-82
2022/05/27 06:25:34;;;;;;;;;;;;;;;24.86;37.96;100248.59;4431204;32;19974;-83
2022/05/27 06:36:18;;;;;;;;;;;;;;;25.55;35.85;100247.81;4431834;32;20015;-82
2022/05/27 06:38:46;;;;;;;;;;;;;;;25.77;36.61;100243.38;4418794;32;20341;-82
2022/05/27 06:41:13;;;;;;;;;;;;;;;25.45;35.53;100242.84;4438820;32;20456;-84
2022/05/27 06:43:40;;;;;;;;;;;;;;;25.87;33.35;100244.75;4431750;32;20039;-85
2022/05/27 06:46:07;;;;;;;;;;;;;;;26.23;31.77;100246.84;4436732;32;19978;-86
2022/05/27 06:48:34;;;;;;;;;;;;;;;26.49;32.18;100242.25;4434616;32;20036;-83
2022/05/27 06:51:05;;;;;;;;;;;;;;;26.44;32.38;100235.28;4422562;32;19995;-84
2022/05/27 06:53:32;;;;;;;;;;;;;;;26.58;32.12;100233.84;4442722;32;20060;-85
2022/05/27 06:55:59;;;;;;;;;;;;;;;27.06;29.87;100232.63;4441405;32;19996;-85
2022/05/27 06:58:26;;;;;;;;;;;;;;;27.26;31.39;100229.91;4431401;32;20349;-86
2022/05/27 07:00:54;;;;;;;;;;;;;;;27.06;33.11;100227.28;4438159;32;19993;-85
2022/05/27 07:03:21;;;;;;;;;;;;;;;26.19;33.92;100224.84;4445031;32;19981;-84
2022/05/27 07:05:48;;;;;;;;;;;;;;;26.75;31.91;100225.16;4438133;32;19970;-84
2022/05/27 07:08:15;;;;;;;;;;;;;;;26.46;33.98;100231.72;4431673;32;20033;-85
2022/05/27 07:10:42;;;;;;;;;;;;;;;26.68;33.49;100232.53;4431362;32;20374;-81
2022/05/27 07:13:09;;;;;;;;;;;;;;;26.72;33.42;100239.44;4435386;32;19986;-84
2022/05/27 07:15:36;;;;;;;;;;;;;;;27.35;31.30;100226.81;4438403;32;19981;-85
2022/05/27 07:18:04;;;;;;;;;;;;;;;27.55;30.93;100222.34;4425318;32;20005;-85
2022/05/27 07:20:31;;;;;;;;;;;;;;;27.31;32.09;100222.59;4444359;32;20038;-87
2022/05/27 07:22:58;;;;;;;;;;;;;;;27.65;31.18;100220.97;4437912;32;19997;-85
2022/05/27 07:25:25;;;;;;;;;;;;;;;27.74;32.64;100209.87;4440234;32;20315;-86
2022/05/27 07:27:54;;;;;;;;;;;;;;;28.10;30.74;100217.00;4418867;32;19998;-86
2022/05/27 07:30:20;;;;;;;;;;;;;;;27.99;30.23;100211.38;4436030;32;20817;-85
2022/05/27 07:32:47;;;;;;;;;;;;;;;28.19;30.27;100215.69;4432307;32;20048;-85
2022/05/27 07:35:16;;;;;;;;;;;;;;;27.87;32.27;100217.28;4441906;32;19989;-86
2022/05/27 07:37:42;;;;;;;;;;;;;;;27.90;32.22;100214.47;4433799;32;20041;-85
2022/05/27 07:40:09;;;;;;;;;;;;;;;27.83;31.92;100207.75;4430966;32;20052;-88
2022/05/27 07:42:38;;;;;;;;;;;;;;;28.06;30.90;100207.44;4434321;32;19985;-86
2022/05/27 07:45:11;;;;;;;;;;;;;;;28.50;29.48;100199.00;4433698;32;19999;-87
2022/05/27 07:47:43;;;;;;;;;;;;;;;28.44;31.60;100199.34;4274610;32;10000703;-86
2022/05/27 07:50:11;;;;;;;;;;;;;;;28.73;30.03;100200.44;4437992;32;20028;-87
2022/05/27 07:52:38;;;;;;;;;;;;;;;28.61;30.47;100199.28;4436738;32;20005;-85
2022/05/27 07:55:05;;;;;;;;;;;;;;;28.91;29.43;100195.94;4430574;32;19981;-85
2022/05/27 07:57:32;;;;;;;;;;;;;;;29.10;28.61;100194.03;4441453;32;19996;-85
2022/05/27 08:00:00;;;;;;;;;;;;;;;28.88;30.04;100188.12;4438467;32;19999;-85
2022/05/27 08:02:37;;;;;;;;;;;;;;;28.86;32.46;100184.66;4437962;32;19981;-84
2022/05/27 08:05:07;;;;;;;;;;;;;;;29.02;30.44;100185.56;4433656;32;20825;-87
2022/05/27 08:07:34;;;;;;;;;;;;;;;28.91;31.22;100185.28;4431137;32;20048;-86
2022/05/27 08:10:00;;;;;;;;;;;;;;;28.94;31.40;100193.09;4418471;32;20041;-88
2022/05/27 08:12:27;;;;;;;;;;;;;;;28.97;30.89;100183.16;4438183;32;20109;-89
2022/05/27 08:14:54;;;;;;;;;;;;;;;29.52;28.51;100178.38;4431101;32;19981;-86
2022/05/27 08:17:22;;;;;;;;;;;;;;;29.68;29.96;100179.25;4433813;32;19985;-85
2022/05/27 08:19:49;;;;;;;;;;;;;;;29.34;30.33;100180.25;4429675;32;20038;-85
2022/05/27 08:22:16;;;;;;;;;;;;;;;29.97;29.37;100184.69;4422617;32;20003;-87
2022/05/27 08:24:42;;;;;;;;;;;;;;;29.10;31.24;100177.16;4439251;32;20060;-85
2022/05/27 08:27:21;;;;;;;;;;;;;;;29.21;31.75;100164.09;4428790;32;19985;-87
2022/05/27 08:29:48;;;;;;;;;;;;;;;29.48;29.74;100167.00;4416631;32;20037;-87
2022/05/27 08:32:15;;;;;;;;;;;;;;;30.08;28.23;100172.41;4435210;32;20008;-87
2022/05/27 08:40:24;;;;;;;;;;;;;;;29.77;28.93;100172.47;4411412;32;20779;-86
2022/05/27 08:43:01;;;;;;;;;;;;;;;29.85;29.59;100162.22;4416993;32;20053;-86
2022/05/27 08:45:33;;;;;;;;;;;;;;;29.84;29.27;100164.03;4416565;32;20038;-86
2022/05/27 08:48:01;;;;;;;;;;;;;;;29.41;31.60;100160.28;4418655;32;20048;-83
2022/05/27 08:50:29;;;;;;;;;;;;;;;29.60;29.98;100155.66;4419642;32;20046;-83
2022/05/27 08:53:15;;;;;;;;;;;;;;;30.05;29.70;100161.91;4439570;32;19993;-82
2022/05/27 09:01:26;;;;;;;;;;;;;;;30.43;28.36;100150.75;4433706;32;20018;-84
2022/05/27 09:04:29;;;;;;;;;;;;;;;30.50;27.43;100154.75;4423428;32;20389;-83
2022/05/27 09:07:04;;;;;;;;;;;;;;;30.37;27.83;100145.78;4382141;32;20030;-87
2022/05/27 09:09:31;;;;;;;;;;;;;;;30.38;28.53;100141.28;4424995;32;20334;-87
2022/05/27 09:12:17;;;;;;;;;;;;;;;30.69;26.95;100150.94;4122417;32;10000750;-86
2022/05/27 09:14:45;;;;;;;;;;;;;;;30.38;26.41;100142.16;4423247;32;19989;-85
2022/05/27 09:17:15;;;;;;;;;;;;;;;30.00;29.47;100145.31;4425898;32;19981;-87
2022/05/27 09:19:46;;;;;;;;;;;;;;;29.76;28.21;100133.41;4417733;32;19974;-85
2022/05/27 09:22:35;;;;;;;;;;;;;;;29.97;27.92;100131.28;4423907;32;20299;-87
2022/05/27 09:25:07;;;;;;;;;;;;;;;30.18;28.28;100131.78;4416193;32;19994;-87
2022/05/27 09:27:57;;;;;;;;;;;;;;;30.17;27.49;100127.41;4431770;32;20000;-86
2022/05/27 09:30:24;;;;;;;;;;;;;;;30.18;28.39;100113.09;4426144;32;19992;-88
2022/05/27 09:33:00;;;;;;;;;;;;;;;29.41;31.96;100126.47;4431869;32;19977;-86
2022/05/27 09:35:33;;;;;;;;;;;;;;;29.75;29.63;100115.69;4425899;32;20004;-86
2022/05/27 09:38:10;;;;;;;;;;;;;;;29.31;28.78;100111.09;4430229;32;20428;-84
2022/05/27 09:40:37;;;;;;;;;;;;;;;29.46;28.34;100120.88;4415642;32;20134;-90
2022/05/27 09:43:04;;;;;;;;;;;;;;;29.18;30.93;100117.12;4434868;32;20036;-88
2022/05/27 09:45:31;;;;;;;;;;;;;;;29.64;28.36;100097.63;4445415;32;20239;-84
2022/05/27 09:47:59;;;;;;;;;;;;;;;29.66;29.26;100101.94;4444214;32;19996;-83
2022/05/27 09:50:27;;;;;;;;;;;;;;;29.39;29.74;100099.06;4424432;32;20009;-83
2022/05/27 09:52:57;;;;;;;;;;;;;;;29.84;28.64;100091.13;4426489;32;20210;-87
2022/05/27 09:55:37;;;;;;;;;;;;;;;29.34;31.05;100097.59;4444887;32;20020;-84
2022/05/27 09:58:05;;;;;;;;;;;;;;;29.62;29.16;100089.72;4427915;32;20003;-85
2022/05/27 10:00:33;;;;;;;;;;;;;;;30.01;28.08;100079.44;4439397;32;19984;-87
2022/05/27 10:03:04;;;;;;;;;;;;;;;29.63;31.06;100079.91;4430762;32;20707;-88
2022/05/27 10:05:31;;;;;;;;;;;;;;;29.81;29.78;100083.31;4431613;32;20053;-84
2022/05/27 10:07:58;;;;;;;;;;;;;;;30.00;27.60;100088.41;4447307;32;20013;-88
2022/05/27 10:10:42;;;;;;;;;;;;;;;29.51;29.31;100081.44;4447190;32;20350;-87
2022/05/27 10:13:16;;;;;;;;;;;;;;;29.03;31.57;100080.66;4447451;32;20386;-83
2022/05/27 10:15:43;;;;;;;;;;;;;;;29.10;30.88;100076.72;4447480;32;19995;-83
2022/05/27 10:18:16;;;;;;;;;;;;;;;29.28;29.46;100079.28;4444972;32;20004;-83
2022/05/27 10:20:43;;;;;;;;;;;;;;;29.15;29.96;100063.97;4434247;32;19986;-83
2022/05/27 10:23:11;;;;;;;;;;;;;;;28.39;31.46;100060.19;4426667;32;20281;-84
2022/05/27 10:25:39;;;;;;;;;;;;;;;29.02;30.75;100056.78;4441871;32;20052;-82
2022/05/27 10:28:07;;;;;;;;;;;;;;;29.28;30.85;100047.28;4423465;32;19996;-84
2022/05/27 10:30:35;;;;;;;;;;;;;;;29.84;28.64;100045.75;4419277;32;20033;-87
2022/05/27 10:33:18;;;;;;;;;;;;;;;29.97;28.28;100040.53;4436687;32;20040;-86
2022/05/27 10:35:46;;;;;;;;;;;;;;;29.96;28.49;100039.66;4433096;32;20030;-84
2022/05/27 10:38:25;;;;;;;;;;;;;;;30.19;27.91;100032.94;4431925;32;19982;-85
2022/05/27 10:40:55;;;;;;;;;;;;;;;30.20;28.70;100025.78;4431515;32;20031;-83
2022/05/27 10:43:40;;;;;;;;;;;;;;;30.03;30.13;100030.34;4437455;32;20048;-83
2022/05/27 10:46:09;;;;;;;;;;;;;;;30.28;30.14;100023.47;4447391;32;20326;-86
2022/05/27 10:48:56;;;;;;;;;;;;;;;30.51;27.16;100014.88;4446030;32;19992;-86
2022/05/27 10:51:33;;;;;;;;;;;;;;;30.18;30.04;100014.28;4441482;32;19977;-86
2022/05/27 10:54:11;;;;;;;;;;;;;;;29.76;30.87;100011.50;4417878;32;19981;-87
2022/05/27 11:02:49;;;;;;;;;;;;;;;30.75;27.93;99998.22;4424374;32;19973;-86
2022/05/27 11:05:35;;;;;;;;;;;;;;;29.92;30.09;99983.88;4446878;32;20052;-82
2022/05/27 11:08:05;;;;;;;;;;;;;;;30.42;28.64;99987.91;4440179;32;20019;-86
2022/05/27 11:10:38;;;;;;;;;;;;;;;30.21;32.12;99974.94;4446672;32;20015;-86
2022/05/27 11:16:14;;;;;;;;;;;;;;;29.52;30.51;99971.16;4444351;32;20048;-85
2022/05/27 11:19:00;;;;;;;;;;;;;;;30.25;28.95;99964.91;4446399;32;20025;-87
2022/05/27 11:21:30;;;;;;;;;;;;;;;30.48;28.97;99961.66;4434589;32;20125;-83
2022/05/27 11:24:16;;;;;;;;;;;;;;;29.06;30.47;99957.88;4445751;32;20003;-88
2022/05/27 11:26:43;;;;;;;;;;;;;;;28.33;32.69;99946.03;4446576;32;20323;-87
2022/05/27 11:29:13;;;;;;;;;;;;;;;29.36;29.60;99944.53;4445891;32;19977;-84
2022/05/27 11:31:58;;;;;;;;;;;;;;;29.29;30.17;99943.19;4443317;32;20003;-84
2022/05/27 11:34:31;;;;;;;;;;;;;;;29.76;30.40;99941.28;4442344;32;19988;-86
2022/05/27 11:37:11;;;;;;;;;;;;;;;30.25;29.15;99938.19;4445889;32;20016;-86
2022/05/27 11:39:47;;;;;;;;;;;;;;;29.85;30.44;99935.38;4445242;32;20342;-83
2022/05/27 11:42:33;;;;;;;;;;;;;;;30.16;28.79;99917.44;4425949;32;19974;-86
2022/05/27 11:45:06;;;;;;;;;;;;;;;29.49;30.78;99917.97;4446336;32;20014;-87
2022/05/27 11:47:36;;;;;;;;;;;;;;;28.95;32.11;99918.50;4407895;32;20423;-85
2022/05/27 11:50:17;;;;;;;;;;;;;;;29.61;30.49;99916.38;4431558;32;19981;-84
2022/05/27 11:52:49;;;;;;;;;;;;;;;29.44;32.04;99909.41;4302403;32;19997;-84
2022/05/27 11:55:35;;;;;;;;;;;;;;;29.87;30.54;99901.44;4276571;32;20335;-84
2022/05/27 11:58:02;;;;;;;;;;;;;;;29.57;32.23;99905.00;4431348;32;20362;-83
2022/05/27 12:00:34;;;;;;;;;;;;;;;29.70;31.34;99904.28;4422112;32;19997;-85
2022/05/27 12:03:10;;;;;;;;;;;;;;;29.60;31.17;99893.31;4416548;32;20034;-86
2022/05/27 12:05:38;;;;;;;;;;;;;;;29.32;32.57;99888.81;4430302;32;19997;-84
2022/05/27 12:08:17;;;;;;;;;;;;;;;29.90;30.28;99885.25;4428923;32;19981;-86
2022/05/27 12:10:46;;;;;;;;;;;;;;;29.44;33.03;99872.06;4426987;32;20346;-89
2022/05/27 12:13:14;;;;;;;;;;;;;;;29.87;31.29;99858.75;4416430;32;20086;-88
2022/05/27 12:16:01;;;;;;;;;;;;;;;29.55;31.93;99866.94;4429782;32;20328;-88
2022/05/27 12:18:40;;;;;;;;;;;;;;;29.41;32.70;99872.25;4430217;32;20259;-87
2022/05/27 12:21:11;;;;;;;;;;;;;;;28.73;32.53;99870.94;4426030;32;20000;-86
2022/05/27 12:23:39;;;;;;;;;;;;;;;29.10;31.55;99866.13;4428482;32;20002;-84
2022/05/27 12:26:06;;;;;;;;;;;;;;;29.12;31.74;99861.53;4414974;32;20045;-88
2022/05/27 12:28:35;;;;;;;;;;;;;;;29.36;31.22;99847.69;4426687;32;19985;-85
2022/05/27 12:31:02;;;;;;;;;;;;;;;29.33;31.74;99847.87;4429730;32;20099;-88
2022/05/27 12:33:30;;;;;;;;;;;;;;;29.28;31.83;99845.47;4416138;32;20166;-88
2022/05/27 12:36:19;;;;;;;;;;;;;;;28.40;33.84;99835.59;4406061;32;19993;-83
2022/05/27 12:39:16;;;;;;;;;;;;;;;28.61;33.20;99828.19;4417207;32;20000;-88
2022/05/27 12:41:43;;;;;;;;;;;;;;;28.98;33.09;99827.69;4431751;32;20733;-87
2022/05/27 12:44:19;;;;;;;;;;;;;;;29.47;31.51;99823.84;4429931;32;20548;-83
2022/05/27 12:46:46;;;;;;;;;;;;;;;29.34;31.93;99817.56;4426492;32;20016;-86
2022/05/27 12:49:33;;;;;;;;;;;;;;;29.36;32.83;99811.19;4415153;32;20403;-85
2022/05/27 12:52:01;;;;;;;;;;;;;;;29.32;33.18;99808.81;4415664;32;20046;-87
2022/05/27 12:54:43;;;;;;;;;;;;;;;28.39;33.24;99812.56;4422132;32;20009;-85
2022/05/27 13:03:08;;;;;;;;;;;;;;;28.33;33.53;99796.94;4402992;32;20042;-85
2022/05/27 13:05:54;;;;;;;;;;;;;;;28.48;32.74;99793.41;4405754;32;19977;-83
2022/05/27 13:08:21;;;;;;;;;;;;;;;28.80;34.86;99795.97;4423456;32;19996;-85
2022/05/27 13:10:49;;;;;;;;;;;;;;;28.79;32.59;99786.28;4425312;32;20765;-85
2022/05/27 13:13:16;;;;;;;;;;;;;;;28.62;34.11;99781.94;4194199;32;5001878;-85
2022/05/27 13:15:53;;;;;;;;;;;;;;;28.84;33.31;99781.50;4415226;32;20306;-85
2022/05/27 13:18:26;;;;;;;;;;;;;;;28.33;33.75;99764.97;4425141;32;20051;-84
2022/05/27 13:20:55;;;;;;;;;;;;;;;28.84;35.75;99766.38;4415831;32;20008;-81
2022/05/27 13:23:25;;;;;;;;;;;;;;;28.53;33.85;99762.06;4421780;32;19996;-87
2022/05/27 13:26:05;;;;;;;;;;;;;;;27.93;34.43;99764.63;4418609;32;20008;-88
2022/05/27 13:28:36;;;;;;;;;;;;;;;28.15;34.22;99751.81;4417745;32;19986;-83
2022/05/27 13:31:13;;;;;;;;;;;;;;;28.38;33.37;99749.59;4421756;32;19992;-86
2022/05/27 13:33:48;;;;;;;;;;;;;;;28.32;33.79;99747.31;4410874;32;19985;-82
2022/05/27 13:36:19;;;;;;;;;;;;;;;27.96;34.42;99751.16;4400737;32;20010;-82
2022/05/27 13:38:49;;;;;;;;;;;;;;;28.44;35.43;99751.94;4414665;32;19974;-82